Pagrindinis puslapis
METAR-TAF:

METAR-TAF

Oro uostai :

Luangprabangas, Laosas

platuma: 19-53N, ilguma: 102-08E, Aukštis: 305 m

Dabartinis oras

Ataskaita buvo paskelbta 10 valandos ir 9 minutes, ne 12:00 UTC
Ramus vėjas
Temperatūra 27°C
Drėgmė 54%
Slėgis 1008 hPa
Matomumas 10 km arba daugiau
nėra debesų žemiau 1500 m ir nėra kamuolinių lietaus debesų

METAR: VLLB 261200Z 00000KT CAVOK 27/17 Q1008 NOSIG

Laikas: 05:09 (22:09 UTC)

Prognozė

Ataskaita buvo paskelbta 5 valandos ir 9 minutes, ne 17:00 UTC
Prognozė galioja nuo 26 metu 18 UTC su 27 metu 18 UTC
Vėjas 4 kt iš Šiaurės Vakarų
Matomumas 10 km arba daugiau
Mažai debesys ne aukštis 2000 ft
Mažai debesys ne aukštis 6000 ft
Laikinai
nuo 26 metu 18 UTC su 26 metu 22 UTC
Matomumas: 2000 m
Mažai debesys ne aukštis 2000 ft
Išsisklaidę debesys ne aukštis 6000 ft
rūkana

TAF: VLLB 261700Z 2618/2718 32004KT 9999 FEW020 FEW060 TEMPO 2618/2622 2000 BR FEW020 SCT060

Orai ataskaitas ir orų prognozės (METAR, TAF).

turimą stotys yra geltonos ir raudonos taškus žemėlapyje.

Perkelti pele per norėdami pamatyti stoties vardą.

Tada spustelėkite, norėdami matyti oro stebėjimo ir prognozės.

Norėdami pakeisti žemėlapį: spustelėkite ant žalios mygtukų su juodo kryžiaus žemyn,; žalią mygtuką su brūkšneliu, jei norite nutolinti; arba žalių rodyklių gretimoms žemėlapius.


METAR-TAF: